Time;durP1;ratioP1;P1;durP2;ratioP2;P2;SDS_P1;SDS_P2;PMS_P1;PMS_P2;Temp;Humidity;BMP_temperature;BMP_pressure;BME280_temperature;BME280_humidity;BME280_pressure;Samples;Min_cycle;Max_cycle;Signal;HPM_P1;HPM_P2
2023/07/26 00:00:54;;;;;;;4.00;1.27;;;13.80;99.90;;;;;;4231825;28;20040;-81
2023/07/26 00:02:55;;;;;;;6.72;1.77;;;13.80;99.90;;;;;;4232151;28;20043;-81
2023/07/26 00:04:55;;;;;;;2.20;1.00;;;13.70;99.90;;;;;;4231569;28;20046;-81
2023/07/26 00:06:56;;;;;;;4.57;1.08;;;13.70;99.90;;;;;;4232008;28;20506;-81
2023/07/26 00:08:57;;;;;;;2.58;1.00;;;13.70;99.90;;;;;;4231700;28;20036;-81
2023/07/26 00:10:57;;;;;;;4.72;1.00;;;13.70;99.90;;;;;;4231601;28;20465;-81
2023/07/26 00:12:58;;;;;;;2.38;1.20;;;13.70;99.90;;;;;;4230485;28;20125;-81
2023/07/26 00:14:59;;;;;;;1.30;0.93;;;13.70;99.90;;;;;;4231921;28;20514;-81
2023/07/26 00:17:00;;;;;;;2.30;1.25;;;13.70;99.90;;;;;;4231515;28;20046;-81
2023/07/26 00:19:01;;;;;;;2.13;1.00;;;13.70;99.90;;;;;;4232040;28;20092;-81
2023/07/26 00:21:01;;;;;;;1.55;0.73;;;13.70;99.90;;;;;;4231824;28;20046;-81
2023/07/26 00:23:02;;;;;;;3.30;1.15;;;14.00;99.90;;;;;;4231880;28;20123;-81
2023/07/26 00:25:03;;;;;;;3.50;1.67;;;13.60;99.90;;;;;;4238644;28;20047;-81
2023/07/26 00:27:04;;;;;;;1.63;0.90;;;13.70;99.90;;;;;;4235687;28;20127;-80
2023/07/26 00:29:05;;;;;;;3.40;1.00;;;13.70;99.90;;;;;;4234370;28;20039;-80
2023/07/26 00:31:06;;;;;;;4.90;1.38;;;13.60;99.90;;;;;;4233951;28;20055;-81
2023/07/26 00:33:07;;;;;;;4.60;1.13;;;13.60;99.90;;;;;;4232989;28;20052;-81
2023/07/26 00:35:07;;;;;;;4.68;1.17;;;13.60;99.90;;;;;;4231707;28;20042;-81
2023/07/26 00:37:08;;;;;;;2.38;0.90;;;13.70;99.90;;;;;;4231177;28;20368;-80
2023/07/26 00:39:09;;;;;;;1.70;0.93;;;13.60;99.90;;;;;;4231732;28;20052;-80
2023/07/26 00:41:10;;;;;;;4.65;0.75;;;13.70;99.90;;;;;;4231351;28;20456;-80
2023/07/26 00:43:11;;;;;;;2.70;1.10;;;13.70;99.90;;;;;;4231805;28;20043;-81
2023/07/26 00:45:12;;;;;;;4.80;1.00;;;13.70;99.90;;;;;;4231839;28;20050;-81
2023/07/26 00:47:13;;;;;;;3.85;1.13;;;13.70;99.90;;;;;;4230122;28;20107;-81
2023/07/26 00:49:14;;;;;;;4.97;1.55;;;13.70;99.90;;;;;;4231076;28;20043;-81
2023/07/26 00:51:15;;;;;;;3.85;1.30;;;13.70;99.90;;;;;;4231087;28;20047;-81
2023/07/26 00:53:16;;;;;;;5.75;1.35;;;13.70;99.90;;;;;;4230282;28;20514;-81
2023/07/26 00:55:17;;;;;;;5.68;1.42;;;13.60;99.90;;;;;;4231441;28;20036;-81
2023/07/26 00:57:18;;;;;;;4.88;1.20;;;13.70;99.90;;;;;;4230455;28;20036;-81
2023/07/26 00:59:19;;;;;;;2.47;1.40;;;13.70;99.90;;;;;;4231147;28;20055;-81
2023/07/26 01:01:20;;;;;;;3.17;1.20;;;13.70;99.90;;;;;;4230755;28;20186;-80
2023/07/26 01:03:21;;;;;;;4.28;1.23;;;13.70;99.90;;;;;;4213174;28;20039;-80
2023/07/26 01:05:27;;;;;;;2.75;1.30;;;13.70;99.90;;;;;;4231672;28;20483;-81
2023/07/26 01:07:58;;;;;;;2.42;1.27;;;13.70;99.90;;;;;;4231511;28;20109;-81
2023/07/26 01:10:19;;;;;;;3.65;1.23;;;13.70;99.90;;;;;;4229689;28;20499;-81
2023/07/26 01:12:26;;;;;;;3.08;1.00;;;13.70;99.90;;;;;;4230338;28;20055;-81
2023/07/26 01:15:08;;;;;;;1.77;1.13;;;13.70;99.90;;;;;;4231635;28;20456;-81
2023/07/26 01:17:09;;;;;;;3.67;1.10;;;13.70;99.90;;;;;;4228793;28;20059;-81
2023/07/26 01:19:09;;;;;;;4.00;1.15;;;13.70;99.90;;;;;;4231320;28;20774;-80
2023/07/26 01:21:10;;;;;;;4.45;1.50;;;13.70;99.90;;;;;;4230624;28;20376;-81
2023/07/26 01:23:11;;;;;;;2.63;1.20;;;13.70;99.90;;;;;;4231283;28;20096;-80
2023/07/26 01:25:12;;;;;;;6.03;1.30;;;13.70;99.90;;;;;;4231030;28;20048;-81
2023/07/26 01:27:12;;;;;;;4.03;1.30;;;13.60;99.90;;;;;;4231190;28;20396;-81
2023/07/26 01:29:13;;;;;;;3.83;1.17;;;13.70;99.90;;;;;;4232200;28;20069;-81
2023/07/26 01:31:16;;;;;;;4.90;1.60;;;13.60;99.90;;;;;;4231080;28;20104;-81
2023/07/26 01:33:19;;;;;;;3.20;1.48;;;13.60;99.90;;;;;;4230814;28;20039;-81
2023/07/26 01:35:21;;;;;;;4.00;1.40;;;13.60;99.90;;;;;;4229842;28;20040;-81
2023/07/26 01:37:22;;;;;;;5.00;1.50;;;13.50;99.90;;;;;;4230521;28;20040;-81
2023/07/26 01:39:23;;;;;;;3.75;1.80;;;13.50;99.90;;;;;;4231603;28;20048;-80
2023/07/26 01:41:25;;;;;;;2.55;1.10;;;13.50;99.90;;;;;;4243452;28;20054;-81
2023/07/26 01:43:27;;;;;;;5.13;1.52;;;13.40;99.90;;;;;;4230417;28;20043;-81
2023/07/26 01:45:28;;;;;;;3.85;1.20;;;13.40;99.90;;;;;;4230986;28;20051;-81
2023/07/26 01:47:28;;;;;;;5.78;1.80;;;13.40;99.90;;;;;;4230527;28;20485;-81
2023/07/26 01:49:29;;;;;;;4.88;2.10;;;13.30;99.90;;;;;;4230786;28;20043;-81
2023/07/26 01:51:30;;;;;;;9.60;2.15;;;13.30;99.90;;;;;;4229273;28;20047;-81
2023/07/26 01:53:31;;;;;;;3.78;1.02;;;13.30;99.90;;;;;;4230808;28;20101;-81
2023/07/26 01:55:31;;;;;;;2.75;1.02;;;13.20;99.90;;;;;;4231047;28;20044;-81
2023/07/26 01:57:32;;;;;;;4.28;2.00;;;13.20;99.90;;;;;;4229784;28;20044;-80
2023/07/26 01:59:34;;;;;;;2.95;1.45;;;13.20;99.90;;;;;;4229314;28;20052;-81
2023/07/26 02:01:34;;;;;;;5.85;1.50;;;13.20;99.90;;;;;;4230305;28;20163;-81
2023/07/26 02:03:35;;;;;;;5.28;1.45;;;13.10;99.90;;;;;;4230790;28;20056;-81
2023/07/26 02:05:45;;;;;;;5.25;2.03;;;12.90;99.90;;;;;;4230986;28;20035;-81
2023/07/26 02:07:46;;;;;;;5.13;2.28;;;13.10;99.90;;;;;;4229950;28;20048;-81
2023/07/26 02:09:47;;;;;;;7.10;1.58;;;13.10;99.90;;;;;;4230823;28;20384;-81
2023/07/26 02:11:47;;;;;;;3.90;1.33;;;13.00;99.90;;;;;;4229081;27;20058;-81
2023/07/26 02:13:48;;;;;;;4.93;1.08;;;13.00;99.90;;;;;;4233708;28;20098;-81
2023/07/26 02:15:49;;;;;;;5.70;1.33;;;13.00;99.90;;;;;;4233835;28;20051;-81
2023/07/26 02:17:49;;;;;;;7.07;1.50;;;12.90;99.90;;;;;;4234049;28;20119;-81
2023/07/26 02:19:50;;;;;;;3.97;1.70;;;12.90;99.90;;;;;;4234276;27;20119;-81
2023/07/26 02:21:51;;;;;;;4.70;1.48;;;12.90;99.90;;;;;;4233118;28;20039;-81
2023/07/26 02:23:52;;;;;;;8.73;2.35;;;12.90;99.90;;;;;;4233654;28;20547;-81
2023/07/26 02:25:52;;;;;;;2.60;1.17;;;12.90;99.90;;;;;;4233969;28;20092;-80
2023/07/26 02:27:53;;;;;;;5.55;1.50;;;12.80;99.90;;;;;;4234554;28;20102;-80
2023/07/26 02:29:54;;;;;;;2.83;1.40;;;12.00;99.90;;;;;;4234041;28;20054;-81
2023/07/26 02:31:56;;;;;;;6.82;1.80;;;12.80;99.90;;;;;;4233936;28;20443;-80
2023/07/26 02:33:56;;;;;;;3.85;1.40;;;12.80;99.90;;;;;;4215997;28;20067;-81
2023/07/26 02:35:59;;;;;;;3.42;1.33;;;12.70;99.90;;;;;;4234088;28;20044;-80
2023/07/26 02:38:00;;;;;;;4.00;1.10;;;12.70;99.90;;;;;;4234534;28;20035;-80
2023/07/26 02:40:00;;;;;;;5.18;1.52;;;12.70;99.90;;;;;;4232940;28;20048;-81
2023/07/26 02:42:01;;;;;;;4.03;1.00;;;12.60;99.90;;;;;;4232899;28;20043;-81
2023/07/26 02:44:02;;;;;;;6.38;1.33;;;12.70;99.90;;;;;;4233308;28;20039;-81
2023/07/26 02:46:03;;;;;;;4.47;1.77;;;12.70;99.90;;;;;;4232744;28;20051;-81
2023/07/26 02:48:04;;;;;;;3.45;1.88;;;12.70;99.90;;;;;;4232970;28;20070;-81
2023/07/26 02:50:05;;;;;;;5.97;1.52;;;12.70;99.90;;;;;;4233363;28;20055;-81
2023/07/26 02:52:06;;;;;;;5.35;1.38;;;12.70;99.90;;;;;;4233034;28;20403;-80
2023/07/26 02:54:06;;;;;;;3.58;1.20;;;12.60;99.90;;;;;;4232657;28;20115;-81
2023/07/26 02:56:07;;;;;;;11.80;2.10;;;12.60;99.90;;;;;;4232552;28;20042;-81
2023/07/26 02:58:09;;;;;;;4.63;1.23;;;12.60;99.90;;;;;;4232865;28;20519;-81
2023/07/26 03:00:10;;;;;;;2.75;1.65;;;12.60;99.90;;;;;;4233166;28;20049;-81
2023/07/26 03:02:11;;;;;;;3.70;1.50;;;12.60;99.90;;;;;;4232903;28;20490;-81
2023/07/26 03:04:12;;;;;;;4.65;1.48;;;12.60;99.90;;;;;;4232738;28;20048;-81
2023/07/26 03:06:13;;;;;;;7.60;1.40;;;12.60;99.90;;;;;;4232885;28;20053;-81
2023/07/26 03:08:13;;;;;;;3.38;1.10;;;12.60;99.90;;;;;;4231336;28;20127;-81
2023/07/26 03:10:14;;;;;;;4.32;1.63;;;12.60;99.90;;;;;;4232875;28;20032;-81
2023/07/26 03:12:15;;;;;;;8.23;1.30;;;12.60;99.90;;;;;;4232679;28;20052;-81
2023/07/26 03:14:16;;;;;;;5.85;1.50;;;12.50;99.90;;;;;;4231924;28;20043;-81
2023/07/26 03:16:17;;;;;;;3.72;1.38;;;12.60;99.90;;;;;;4232524;28;20048;-81
2023/07/26 03:18:17;;;;;;;3.90;1.15;;;12.60;99.90;;;;;;4232959;28;20067;-81
2023/07/26 03:20:18;;;;;;;4.93;1.35;;;12.50;99.90;;;;;;4232819;28;20047;-81
2023/07/26 03:22:19;;;;;;;4.18;1.52;;;12.60;99.90;;;;;;4231928;28;20131;-81
2023/07/26 03:24:20;;;;;;;4.65;1.42;;;12.60;99.90;;;;;;4232583;27;20054;-81
2023/07/26 03:26:20;;;;;;;2.78;1.30;;;12.60;99.90;;;;;;4232437;28;20044;-81
2023/07/26 03:28:21;;;;;;;6.78;1.80;;;12.50;99.90;;;;;;4233012;28;20131;-81
2023/07/26 03:30:22;;;;;;;5.85;1.90;;;12.60;99.90;;;;;;4232971;28;20043;-81
2023/07/26 03:32:22;;;;;;;4.75;1.48;;;12.60;99.90;;;;;;4232402;28;20055;-80
2023/07/26 03:34:23;;;;;;;6.78;1.48;;;12.50;99.90;;;;;;4232373;28;20055;-81
2023/07/26 03:36:24;;;;;;;6.00;1.67;;;12.60;99.90;;;;;;4232264;28;20040;-80
2023/07/26 03:38:25;;;;;;;4.72;1.65;;;12.60;99.90;;;;;;4232457;28;20039;-80
2023/07/26 03:40:25;;;;;;;6.43;1.50;;;12.50;99.90;;;;;;4232629;28;20143;-81
2023/07/26 03:42:27;;;;;;;9.73;3.00;;;12.60;99.90;;;;;;4231091;28;20039;-81
2023/07/26 03:44:28;;;;;;;29.10;3.28;;;13.10;99.90;;;;;;4232355;28;20052;-81
2023/07/26 03:46:29;;;;;;;8.57;1.88;;;11.70;99.90;;;;;;4232320;28;20086;-81
2023/07/26 03:48:30;;;;;;;4.75;1.83;;;12.70;99.90;;;;;;4231022;28;20051;-81
2023/07/26 03:50:33;;;;;;;7.95;2.03;;;12.00;99.90;;;;;;4232325;28;20394;-81
2023/07/26 03:52:33;;;;;;;3.45;1.50;;;12.60;99.90;;;;;;4230619;28;20089;-79
2023/07/26 03:54:34;;;;;;;5.57;1.80;;;12.80;99.90;;;;;;4232335;28;20116;-81
2023/07/26 03:56:35;;;;;;;6.97;2.08;;;12.80;99.90;;;;;;4231517;28;20118;-81
2023/07/26 03:58:36;;;;;;;3.92;1.83;;;12.70;99.90;;;;;;4231822;28;20054;-81
2023/07/26 04:00:37;;;;;;;3.00;1.20;;;12.70;99.90;;;;;;4232006;28;20491;-81
2023/07/26 04:02:37;;;;;;;3.58;1.33;;;12.70;99.90;;;;;;4232035;28;20433;-81
2023/07/26 04:04:38;;;;;;;4.10;1.35;;;11.50;99.90;;;;;;4232263;28;20047;-82
2023/07/26 04:06:39;;;;;;;11.18;2.15;;;12.70;99.90;;;;;;4230528;28;20044;-82
2023/07/26 04:08:40;;;;;;;5.15;1.75;;;12.80;99.90;;;;;;4231583;28;20044;-81
2023/07/26 04:10:41;;;;;;;4.43;1.90;;;12.80;99.90;;;;;;4232275;28;20052;-81
2023/07/26 04:12:41;;;;;;;6.18;1.70;;;12.70;99.90;;;;;;4231534;28;20073;-81
2023/07/26 04:14:42;;;;;;;6.55;1.50;;;12.60;99.90;;;;;;4232039;28;20067;-81
2023/07/26 04:16:43;;;;;;;5.15;1.30;;;12.70;99.90;;;;;;4231794;28;20042;-82
2023/07/26 04:18:44;;;;;;;4.45;1.77;;;12.70;99.90;;;;;;4231365;28;20100;-81
2023/07/26 04:20:45;;;;;;;4.57;1.80;;;12.70;99.90;;;;;;4231819;28;20040;-81
2023/07/26 04:22:45;;;;;;;3.75;1.85;;;12.70;99.90;;;;;;4231778;28;20498;-81
2023/07/26 04:24:46;;;;;;;3.30;1.85;;;12.70;99.90;;;;;;4230523;28;20078;-79
2023/07/26 04:26:47;;;;;;;7.38;1.70;;;12.70;99.90;;;;;;4230163;28;20466;-79
2023/07/26 04:28:47;;;;;;;3.92;1.70;;;12.60;99.90;;;;;;4230386;28;20054;-80
2023/07/26 04:30:48;;;;;;;3.80;2.15;;;12.60;99.90;;;;;;4213535;28;20052;-80
2023/07/26 04:32:49;;;;;;;2.22;1.30;;;12.60;99.90;;;;;;4230900;28;20800;-80
2023/07/26 04:34:50;;;;;;;5.30;1.80;;;12.80;99.90;;;;;;4231335;28;20036;-80
2023/07/26 04:36:50;;;;;;;10.48;2.47;;;12.70;99.90;;;;;;4212782;28;20032;-79
2023/07/26 04:38:51;;;;;;;3.30;1.70;;;12.70;99.90;;;;;;4231544;28;20044;-80
2023/07/26 04:40:52;;;;;;;4.75;1.83;;;12.60;99.90;;;;;;4231735;28;20043;-80
2023/07/26 04:42:53;;;;;;;6.40;1.80;;;12.60;99.90;;;;;;4231463;28;20128;-80
2023/07/26 04:44:54;;;;;;;6.35;1.92;;;12.70;99.90;;;;;;4231298;28;20053;-80
2023/07/26 04:46:54;;;;;;;6.57;1.77;;;12.60;99.90;;;;;;4230714;28;20555;-81
2023/07/26 04:48:55;;;;;;;5.25;1.65;;;12.60;99.90;;;;;;4231581;28;20048;-79
2023/07/26 04:50:56;;;;;;;5.78;1.77;;;12.60;99.90;;;;;;4230068;28;20035;-79
2023/07/26 04:52:56;;;;;;;4.15;2.15;;;12.70;99.90;;;;;;4231387;28;20045;-80
2023/07/26 04:54:59;;;;;;;4.00;1.30;;;12.70;99.90;;;;;;4231549;28;20054;-79
2023/07/26 04:56:59;;;;;;;3.30;1.63;;;12.60;99.90;;;;;;4230489;28;20112;-79
2023/07/26 04:59:00;;;;;;;7.32;2.10;;;12.80;99.90;;;;;;4230928;28;20452;-81
2023/07/26 05:01:01;;;;;;;4.95;1.70;;;12.70;99.90;;;;;;4231526;28;20437;-79
2023/07/26 05:03:01;;;;;;;4.38;2.00;;;12.70;99.90;;;;;;4230905;28;20475;-79
2023/07/26 05:05:02;;;;;;;6.28;2.08;;;12.90;99.90;;;;;;4231525;28;20110;-79
2023/07/26 05:07:03;;;;;;;6.80;2.22;;;12.70;99.90;;;;;;4230119;28;20055;-79
2023/07/26 05:09:05;;;;;;;4.25;2.05;;;12.70;99.90;;;;;;4229345;28;20058;-79
2023/07/26 05:11:05;;;;;;;5.70;2.22;;;12.80;99.90;;;;;;4231633;28;20039;-79
2023/07/26 05:13:06;;;;;;;6.15;1.80;;;13.00;99.90;;;;;;4229823;28;20114;-79
2023/07/26 05:15:07;;;;;;;5.63;1.75;;;13.10;99.90;;;;;;4231105;28;20071;-80
2023/07/26 05:17:08;;;;;;;5.70;2.35;;;13.20;99.90;;;;;;4230339;28;20487;-79
2023/07/26 05:19:09;;;;;;;5.65;1.63;;;13.00;99.90;;;;;;4231240;28;20079;-79
2023/07/26 05:21:10;;;;;;;4.22;2.08;;;13.20;99.90;;;;;;4231212;28;20035;-80
2023/07/26 05:23:10;;;;;;;3.35;1.77;;;13.20;99.90;;;;;;4212988;28;20076;-80
2023/07/26 05:25:12;;;;;;;5.38;1.80;;;13.30;99.90;;;;;;4229764;28;20151;-80
2023/07/26 05:27:14;;;;;;;5.95;2.00;;;13.30;99.90;;;;;;4230682;28;20047;-80
2023/07/26 05:29:14;;;;;;;3.70;1.80;;;13.30;99.90;;;;;;4229353;28;20043;-80
2023/07/26 05:31:15;;;;;;;6.43;2.08;;;13.40;99.90;;;;;;4230018;28;20736;-80
2023/07/26 05:33:16;;;;;;;4.88;1.80;;;13.40;99.90;;;;;;4230690;28;20036;-80
2023/07/26 05:35:17;;;;;;;6.15;2.03;;;13.50;99.90;;;;;;4230387;28;20038;-80
2023/07/26 05:37:17;;;;;;;8.40;2.90;;;13.60;99.90;;;;;;4230787;28;20129;-80
2023/07/26 05:39:18;;;;;;;2.67;1.45;;;13.60;99.90;;;;;;4229712;28;20062;-80
2023/07/26 05:41:19;;;;;;;3.40;1.60;;;13.70;99.90;;;;;;4230393;28;20059;-80
2023/07/26 05:43:20;;;;;;;4.93;1.63;;;13.70;99.90;;;;;;4230663;28;20108;-80
2023/07/26 05:45:20;;;;;;;3.60;1.77;;;13.80;99.90;;;;;;4230576;28;20078;-80
2023/07/26 05:47:21;;;;;;;3.25;1.55;;;13.80;99.90;;;;;;4231184;28;20039;-80
2023/07/26 05:49:22;;;;;;;7.63;1.63;;;13.80;99.90;;;;;;4233673;28;20044;-80
2023/07/26 05:51:23;;;;;;;3.47;1.50;;;13.80;99.90;;;;;;4233611;28;20048;-79
2023/07/26 05:53:24;;;;;;;7.05;1.55;;;13.80;99.90;;;;;;4233020;28;20043;-80
2023/07/26 05:55:24;;;;;;;3.70;1.40;;;13.70;99.90;;;;;;4233851;28;20126;-80
2023/07/26 05:57:25;;;;;;;3.42;1.60;;;13.80;99.90;;;;;;4233537;28;20040;-80
2023/07/26 05:59:26;;;;;;;2.25;1.30;;;13.80;99.90;;;;;;4233704;28;20518;-80
2023/07/26 06:01:27;;;;;;;3.97;1.30;;;13.80;99.90;;;;;;4232278;28;20126;-80
2023/07/26 06:03:28;;;;;;;6.05;1.73;;;13.80;99.90;;;;;;4233702;28;20508;-80
2023/07/26 06:05:29;;;;;;;5.18;1.30;;;13.80;99.90;;;;;;4234052;28;20082;-80
2023/07/26 06:07:30;;;;;;;6.57;1.85;;;13.80;99.90;;;;;;4232502;28;20481;-80
2023/07/26 06:09:30;;;;;;;6.20;1.50;;;13.80;99.90;;;;;;4234062;28;20039;-80
2023/07/26 06:11:31;;;;;;;3.10;1.45;;;13.70;99.90;;;;;;4232365;28;20399;-80
2023/07/26 06:13:32;;;;;;;3.72;1.48;;;13.70;99.90;;;;;;4233820;28;20046;-80
2023/07/26 06:15:32;;;;;;;3.65;1.40;;;13.70;99.90;;;;;;4232161;28;20358;-80
2023/07/26 06:17:33;;;;;;;7.35;1.35;;;13.80;99.90;;;;;;4233630;28;20093;-80
2023/07/26 06:19:34;;;;;;;5.53;1.02;;;13.70;99.90;;;;;;4233847;27;20044;-80
2023/07/26 06:21:35;;;;;;;5.03;2.30;;;13.70;99.90;;;;;;4233914;28;20491;-80
2023/07/26 06:23:35;;;;;;;3.25;1.20;;;13.90;99.90;;;;;;4233783;28;20044;-80
2023/07/26 06:25:36;;;;;;;2.58;1.40;;;13.60;99.90;;;;;;4233688;28;20064;-80
2023/07/26 06:27:37;;;;;;;4.50;1.60;;;13.60;99.90;;;;;;4233413;27;20043;-81
2023/07/26 06:29:38;;;;;;;2.65;1.15;;;13.60;99.90;;;;;;4233188;28;20514;-80
2023/07/26 06:31:38;;;;;;;3.10;1.15;;;13.70;99.90;;;;;;4233315;27;20051;-80
2023/07/26 06:33:39;;;;;;;5.25;1.38;;;13.70;99.90;;;;;;4233205;28;20075;-80
2023/07/26 06:35:41;;;;;;;3.45;1.10;;;13.70;99.90;;;;;;4233582;28;20043;-80
2023/07/26 06:37:42;;;;;;;2.58;1.30;;;13.80;99.90;;;;;;4215221;28;20047;-80
2023/07/26 06:39:42;;;;;;;4.35;0.90;;;13.90;99.90;;;;;;4233394;28;20108;-80
2023/07/26 06:41:43;;;;;;;2.78;1.17;;;14.10;99.90;;;;;;4232318;28;20063;-80
2023/07/26 06:43:44;;;;;;;2.47;1.00;;;14.40;99.90;;;;;;4232243;28;20050;-80
2023/07/26 06:45:50;;;;;;;3.50;1.50;;;14.60;99.90;;;;;;4232632;28;20087;-80
2023/07/26 06:47:51;;;;;;;5.55;1.77;;;14.70;99.90;;;;;;4231788;28;20036;-80
2023/07/26 06:49:52;;;;;;;3.05;1.27;;;14.70;99.90;;;;;;4233114;28;20035;-79
2023/07/26 06:51:53;;;;;;;4.03;0.80;;;14.70;99.90;;;;;;4232598;28;20386;-80
2023/07/26 06:53:53;;;;;;;2.22;1.02;;;14.70;99.90;;;;;;4231683;28;20051;-80
2023/07/26 06:55:58;;;;;;;4.05;1.10;;;14.80;99.90;;;;;;4231823;28;20462;-79
2023/07/26 06:57:59;;;;;;;2.83;1.20;;;14.90;99.90;;;;;;4230754;28;20053;-80
2023/07/26 07:00:01;;;;;;;1.95;0.90;;;15.00;99.90;;;;;;4231590;28;20123;-80
2023/07/26 07:02:04;;;;;;;2.70;0.98;;;14.80;99.90;;;;;;4232942;28;20044;-80
2023/07/26 07:04:05;;;;;;;3.22;1.10;;;15.00;99.90;;;;;;4215078;28;20040;-80
2023/07/26 07:06:06;;;;;;;7.35;1.20;;;15.00;99.90;;;;;;4249194;28;20043;-79
2023/07/26 07:08:06;;;;;;;3.08;1.02;;;15.10;99.90;;;;;;4237088;28;20067;-80
2023/07/26 07:10:07;;;;;;;2.20;1.13;;;15.20;99.90;;;;;;4232211;28;20129;-79
2023/07/26 07:12:09;;;;;;;1.90;1.30;;;15.40;99.90;;;;;;4233006;28;20479;-79
2023/07/26 07:14:09;;;;;;;4.03;0.93;;;15.60;99.90;;;;;;4232488;28;20114;-80
2023/07/26 07:16:10;;;;;;;3.15;0.90;;;15.60;99.90;;;;;;4230904;28;20530;-80
2023/07/26 07:18:11;;;;;;;1.52;0.75;;;15.70;99.90;;;;;;4232597;28;20047;-80
2023/07/26 07:20:12;;;;;;;1.85;0.90;;;15.80;99.90;;;;;;4231449;28;20100;-80
2023/07/26 07:22:13;;;;;;;2.38;0.90;;;15.80;99.90;;;;;;4232674;28;20047;-80
2023/07/26 07:24:13;;;;;;;2.50;0.80;;;15.90;99.90;;;;;;4231292;28;20126;-80
2023/07/26 07:26:14;;;;;;;2.05;0.90;;;15.90;99.90;;;;;;4232703;28;20558;-80
2023/07/26 07:28:15;;;;;;;2.50;1.17;;;16.00;99.90;;;;;;4231693;28;20149;-80
2023/07/26 07:30:16;;;;;;;1.83;0.98;;;16.10;99.90;;;;;;4231086;28;20126;-80
2023/07/26 07:32:17;;;;;;;1.23;0.73;;;16.20;99.90;;;;;;4230934;28;20063;-80
2023/07/26 07:34:18;;;;;;;3.67;1.25;;;16.10;99.90;;;;;;4231088;28;20050;-79
2023/07/26 07:36:19;;;;;;;2.92;0.88;;;16.00;99.90;;;;;;4230820;28;20044;-80
2023/07/26 07:38:20;;;;;;;1.88;0.98;;;16.10;99.90;;;;;;4230872;28;20086;-80
2023/07/26 07:40:21;;;;;;;1.50;0.88;;;16.00;99.90;;;;;;4214279;28;20470;-79
2023/07/26 07:42:22;;;;;;;4.28;1.13;;;16.00;99.90;;;;;;4231866;28;20086;-80
2023/07/26 07:44:22;;;;;;;4.05;1.00;;;16.00;99.90;;;;;;4230998;28;20044;-80
2023/07/26 07:46:28;;;;;;;4.65;0.90;;;;;;;;;;4230649;28;20563;-80
2023/07/26 07:48:29;;;;;;;2.03;1.08;;;;;;;;;;4232213;28;20048;-80
2023/07/26 07:50:30;;;;;;;2.25;0.80;;;16.00;99.90;;;;;;4230847;28;20051;-79
2023/07/26 07:52:32;;;;;;;1.45;0.80;;;16.40;99.90;;;;;;4213948;28;20629;-80
2023/07/26 07:54:33;;;;;;;2.53;1.35;;;16.50;99.90;;;;;;4230328;28;20139;-80
2023/07/26 07:56:34;;;;;;;1.65;0.60;;;16.60;99.90;;;;;;4230353;28;20043;-80
2023/07/26 07:58:34;;;;;;;3.35;0.95;;;16.60;99.90;;;;;;4230974;28;20063;-80
2023/07/26 08:00:35;;;;;;;1.50;0.90;;;16.70;99.90;;;;;;4231899;28;20460;-79
2023/07/26 08:02:36;;;;;;;1.63;0.90;;;16.70;99.90;;;;;;4230473;28;20039;-79
2023/07/26 08:04:38;;;;;;;2.13;0.70;;;16.70;99.90;;;;;;4214021;28;20055;-81
2023/07/26 08:06:39;;;;;;;1.63;0.90;;;16.70;99.90;;;;;;4230051;28;20066;-79
2023/07/26 08:08:40;;;;;;;2.83;0.85;;;;;;;;;;4232173;28;20122;-79
2023/07/26 08:10:41;;;;;;;2.50;0.60;;;16.70;99.90;;;;;;4231196;28;20035;-79
2023/07/26 08:12:41;;;;;;;2.75;0.60;;;16.90;99.90;;;;;;4230472;28;20155;-79
2023/07/26 08:14:49;;;;;;;0.98;0.50;;;16.90;99.90;;;;;;4231006;28;20049;-79
2023/07/26 08:16:50;;;;;;;1.17;0.50;;;17.00;99.90;;;;;;4231728;27;20044;-79
2023/07/26 08:18:50;;;;;;;0.65;0.57;;;17.00;99.90;;;;;;4232470;28;20118;-80
2023/07/26 08:20:51;;;;;;;0.57;0.50;;;16.80;99.90;;;;;;4231890;28;20399;-79
2023/07/26 08:22:52;;;;;;;1.80;0.60;;;16.90;99.90;;;;;;4230307;28;20051;-79
2023/07/26 08:24:53;;;;;;;1.00;0.80;;;17.00;99.90;;;;;;4231688;28;20055;-79
2023/07/26 08:26:53;;;;;;;1.38;0.70;;;17.10;99.90;;;;;;4232152;28;20114;-79
2023/07/26 08:28:54;;;;;;;1.42;0.57;;;15.90;99.90;;;;;;4230599;28;20050;-79
2023/07/26 08:30:55;;;;;;;1.50;0.90;;;17.20;99.90;;;;;;4213634;28;20058;-79
2023/07/26 08:32:55;;;;;;;1.75;0.90;;;17.30;99.90;;;;;;4231824;28;20085;-80
2023/07/26 08:34:56;;;;;;;1.42;0.90;;;17.40;99.90;;;;;;4231742;28;20043;-80
2023/07/26 08:36:57;;;;;;;1.52;0.90;;;17.60;99.90;;;;;;4232519;28;20036;-80
2023/07/26 08:38:58;;;;;;;1.25;0.75;;;17.80;99.90;;;;;;4232595;28;20039;-80
2023/07/26 08:40:58;;;;;;;2.47;0.60;;;18.10;99.90;;;;;;4244032;28;20043;-80
2023/07/26 08:43:03;;;;;;;1.73;1.05;;;18.40;99.90;;;;;;4248011;28;20542;-80
2023/07/26 08:45:06;;;;;;;3.97;0.70;;;18.40;99.90;;;;;;4236535;28;20090;-80
2023/07/26 08:47:09;;;;;;;1.20;0.82;;;18.40;99.90;;;;;;4231269;28;20067;-80
2023/07/26 08:49:10;;;;;;;2.30;1.17;;;18.40;99.90;;;;;;4230285;28;20130;-80
2023/07/26 08:51:11;;;;;;;1.77;0.77;;;18.40;99.90;;;;;;4230880;28;20044;-80
2023/07/26 08:53:13;;;;;;;1.10;0.82;;;18.50;99.90;;;;;;4230871;28;20047;-80
2023/07/26 08:55:16;;;;;;;1.20;0.70;;;18.60;99.90;;;;;;4231225;28;20047;-80
2023/07/26 08:57:18;;;;;;;1.58;0.90;;;18.60;99.90;;;;;;4232782;27;20417;-79
2023/07/26 08:59:18;;;;;;;1.92;1.00;;;18.60;99.90;;;;;;4233545;28;20169;-80
2023/07/26 09:01:22;;;;;;;4.80;1.25;;;18.40;99.90;;;;;;4239147;28;20051;-81
2023/07/26 09:03:23;;;;;;;2.15;1.20;;;18.30;99.90;;;;;;4231514;28;20051;-80
2023/07/26 09:05:24;;;;;;;1.63;1.17;;;18.30;99.90;;;;;;4231460;28;20048;-80
2023/07/26 09:07:25;;;;;;;2.55;1.35;;;18.30;99.90;;;;;;4229907;28;20035;-80
2023/07/26 09:09:26;;;;;;;2.88;0.80;;;18.40;99.90;;;;;;4231048;28;20127;-80
2023/07/26 09:11:27;;;;;;;2.13;1.00;;;18.40;99.90;;;;;;4230938;28;20384;-80
2023/07/26 09:13:28;;;;;;;2.13;0.90;;;;;;;;;;4231328;28;20047;-80
2023/07/26 09:15:35;;;;;;;2.97;1.52;;;18.50;99.90;;;;;;4231295;28;20525;-80
2023/07/26 09:17:43;;;;;;;2.38;1.10;;;18.60;99.90;;;;;;4230028;28;20074;-79
2023/07/26 09:19:44;;;;;;;1.58;0.98;;;18.70;99.90;;;;;;4229762;28;20040;-80
2023/07/26 09:21:44;;;;;;;2.05;1.15;;;18.50;99.90;;;;;;4230927;28;20083;-80
2023/07/26 09:23:46;;;;;;;1.60;1.00;;;19.00;99.90;;;;;;4230473;28;20048;-80
2023/07/26 09:25:47;;;;;;;2.38;1.27;;;;;;;;;;4230318;28;20185;-80
2023/07/26 09:27:55;;;;;;;1.45;1.10;;;;;;;;;;4230638;28;20130;-80
2023/07/26 09:29:57;;;;;;;2.05;1.17;;;;;;;;;;4230673;28;20128;-80
2023/07/26 09:31:58;;;;;;;2.17;1.15;;;;;;;;;;4229040;28;20054;-80
2023/07/26 09:34:04;;;;;;;5.70;1.50;;;;;;;;;;4230749;28;20055;-80
2023/07/26 09:36:06;;;;;;;2.13;1.20;;;;;;;;;;4230566;28;20120;-80
2023/07/26 09:38:13;;;;;;;3.50;1.35;;;;;;;;;;4229111;28;20050;-80
2023/07/26 09:40:14;;;;;;;3.92;1.38;;;;;;;;;;4230488;28;20035;-80
2023/07/26 09:42:15;;;;;;;2.47;1.30;;;;;;;;;;4230397;28;20074;-80
2023/07/26 09:44:19;;;;;;;2.38;1.33;;;;;;;;;;4230122;28;20044;-80
2023/07/26 09:46:20;;;;;;;2.65;1.40;;;;;;;;;;4230682;28;20131;-80
2023/07/26 09:48:21;;;;;;;5.90;1.50;;;;;;;;;;4230500;28;20044;-80
2023/07/26 09:50:24;;;;;;;2.90;1.20;;;;;;;;;;4230538;28;20040;-80
2023/07/26 09:52:26;;;;;;;5.40;1.25;;;;;;;;;;4230384;28;20062;-80
2023/07/26 09:54:31;;;;;;;4.53;1.50;;;;;;;;;;4230190;28;20123;-80
2023/07/26 09:56:33;;;;;;;5.13;1.77;;;;;;;;;;4230389;28;20035;-80
2023/07/26 09:58:35;;;;;;;1.92;1.30;;;;;;;;;;4229712;28;20145;-80
2023/07/26 10:00:36;;;;;;;2.15;1.40;;;;;;;;;;4230981;28;20047;-80
2023/07/26 10:02:38;;;;;;;3.10;1.30;;;;;;;;;;4230188;28;20097;-80
2023/07/26 10:04:43;;;;;;;2.33;1.65;;;;;;;;;;4230302;28;20046;-80
2023/07/26 10:06:44;;;;;;;2.45;1.48;;;;;;;;;;4229336;28;20048;-80
2023/07/26 10:08:46;;;;;;;2.38;1.55;;;;;;;;;;4230708;28;20533;-80
2023/07/26 10:10:48;;;;;;;3.08;1.08;;;;;;;;;;4230502;28;20087;-80
2023/07/26 10:12:52;;;;;;;1.95;1.05;;;;;;;;;;4230314;28;20441;-80
2023/07/26 10:14:56;;;;;;;1.35;0.80;;;;;;;;;;4229361;28;20043;-80
2023/07/26 10:16:58;;;;;;;2.08;1.00;;;;;;;;;;4229987;28;20043;-80
2023/07/26 10:19:03;;;;;;;1.95;0.93;;;;;;;;;;4229906;28;20040;-80
2023/07/26 10:21:05;;;;;;;2.15;1.20;;;;;;;;;;4230800;28;20043;-80
2023/07/26 10:23:10;;;;;;;2.42;1.20;;;;;;;;;;4230012;28;20449;-79
2023/07/26 10:25:11;;;;;;;1.98;1.08;;;;;;;;;;4229574;28;20461;-80
2023/07/26 10:27:12;;;;;;;2.22;1.05;;;;;;;;;;4230063;28;20035;-80
2023/07/26 10:29:14;;;;;;;3.63;1.20;;;;;;;;;;4230054;28;20044;-80
2023/07/26 10:31:15;;;;;;;3.22;1.50;;;;;;;;;;4230472;28;20043;-80
2023/07/26 10:33:16;;;;;;;2.03;0.80;;;;;;;;;;4230523;28;20055;-80
2023/07/26 10:35:28;;;;;;;5.22;1.63;;;;;;;;;;4232848;28;20039;-80
2023/07/26 10:37:33;;;;;;;4.25;1.73;;;;;;;;;;4232082;28;20073;-80
2023/07/26 10:39:34;;;;;;;2.13;1.40;;;;;;;;;;4233841;27;20456;-79
2023/07/26 10:41:36;;;;;;;2.08;1.30;;;;;;;;;;4233541;28;20031;-80
2023/07/26 10:43:38;;;;;;;3.03;1.23;;;;;;;;;;4233481;28;20071;-80